createdAt,value
2023-02-03T00:01:34.091Z,87.30
2023-02-03T00:03:57.337Z,87.40
2023-02-03T00:06:20.762Z,87.60
2023-02-03T00:08:44.057Z,87.50
2023-02-03T00:11:09.145Z,87.60
2023-02-03T00:13:32.582Z,87.50
2023-02-03T00:15:56.024Z,87.40
2023-02-03T00:18:19.304Z,87.80
2023-02-03T00:20:42.601Z,88.30
2023-02-03T00:23:06.797Z,88.00
2023-02-03T00:25:30.206Z,87.90
2023-02-03T00:27:54.815Z,87.80
2023-02-03T00:30:18.784Z,87.30
2023-02-03T00:32:42.174Z,87.90
2023-02-03T00:35:06.064Z,87.60
2023-02-03T00:37:29.443Z,87.40
2023-02-03T00:39:52.983Z,87.30
2023-02-03T00:42:16.790Z,87.40
2023-02-03T00:44:41.953Z,87.60
2023-02-03T00:47:05.376Z,87.30
2023-02-03T00:49:28.630Z,87.40
2023-02-03T00:51:52.596Z,87.60
2023-02-03T00:54:17.753Z,87.30
2023-02-03T00:56:41.439Z,87.10
2023-02-03T00:59:04.952Z,87.20
2023-02-03T01:01:29.779Z,87.10
2023-02-03T01:03:55.580Z,87.40
2023-02-03T01:06:21.597Z,87.50
2023-02-03T01:08:45.676Z,87.60
2023-02-03T01:11:09.852Z,87.20
2023-02-03T01:13:33.127Z,87.70
2023-02-03T01:15:56.485Z,87.40
2023-02-03T01:18:21.140Z,86.80
2023-02-03T01:20:44.414Z,87.10
2023-02-03T01:23:07.688Z,87.10
2023-02-03T01:25:30.997Z,87.10
2023-02-03T01:27:54.294Z,87.20
2023-02-03T01:30:18.492Z,86.80
2023-02-03T01:32:41.722Z,87.10
2023-02-03T01:35:07.025Z,87.00
2023-02-03T01:37:30.384Z,87.00
2023-02-03T01:39:53.673Z,87.00
2023-02-03T01:42:17.925Z,86.90
2023-02-03T01:44:47.673Z,86.90
2023-02-03T01:47:18.881Z,86.90
2023-02-03T01:49:46.396Z,86.70
2023-02-03T01:52:11.307Z,86.40
2023-02-03T01:54:40.327Z,86.60
2023-02-03T01:57:12.689Z,86.80
2023-02-03T01:59:37.297Z,86.40
2023-02-03T02:02:01.578Z,86.10
2023-02-03T02:04:33.767Z,86.20
2023-02-03T02:06:58.796Z,86.10
2023-02-03T02:09:24.099Z,85.90
2023-02-03T02:11:47.430Z,86.40
2023-02-03T02:14:10.843Z,86.30
2023-02-03T02:16:47.709Z,86.00
2023-02-03T02:19:45.967Z,86.00
2023-02-03T02:22:15.867Z,86.40
2023-02-03T02:25:11.916Z,86.30
2023-02-03T02:28:19.593Z,86.10
2023-02-03T02:31:08.242Z,85.90
2023-02-03T02:33:42.638Z,85.50
2023-02-03T02:36:19.497Z,85.30
2023-02-03T02:38:52.181Z,85.70
2023-02-03T02:41:21.714Z,85.50
2023-02-03T02:43:52.819Z,85.20
2023-02-03T02:46:21.369Z,85.60
2023-02-03T02:48:53.132Z,85.50
2023-02-03T02:51:17.960Z,85.30
2023-02-03T02:53:47.008Z,85.20
2023-02-03T02:56:15.600Z,85.30
2023-02-03T02:58:42.452Z,85.50
2023-02-03T03:01:08.370Z,84.90
2023-02-03T03:03:34.572Z,85.10
2023-02-03T03:06:03.961Z,85.40
2023-02-03T03:08:37.835Z,85.10
2023-02-03T03:11:03.510Z,85.20
2023-02-03T03:13:33.563Z,85.40
2023-02-03T03:16:01.093Z,85.30
2023-02-03T03:18:30.411Z,85.50
2023-02-03T03:20:57.353Z,85.30
2023-02-03T03:23:27.102Z,84.70
2023-02-03T03:25:56.445Z,84.60
2023-02-03T03:28:27.113Z,84.60
2023-02-03T03:30:50.669Z,84.90
2023-02-03T03:33:14.237Z,84.80
2023-02-03T03:35:49.423Z,84.80
2023-02-03T03:38:19.353Z,84.90
2023-02-03T03:40:50.841Z,84.60
2023-02-03T03:43:20.405Z,84.90
2023-02-03T03:45:50.380Z,85.20
2023-02-03T03:48:18.892Z,84.70
2023-02-03T03:50:46.419Z,84.70
2023-02-03T03:53:11.784Z,84.50
2023-02-03T03:55:37.641Z,84.50
2023-02-03T03:58:07.027Z,84.10
2023-02-03T04:00:33.910Z,83.90
2023-02-03T04:02:59.688Z,84.30
2023-02-03T04:05:23.440Z,83.90
2023-02-03T04:07:49.331Z,84.70
2023-02-03T04:10:24.634Z,84.10
2023-02-03T04:12:47.959Z,84.00
2023-02-03T04:15:12.682Z,83.70
2023-02-03T04:17:36.502Z,83.80
2023-02-03T04:19:59.764Z,83.60
2023-02-03T04:22:23.007Z,83.80
2023-02-03T04:24:46.306Z,83.70
2023-02-03T04:27:09.604Z,83.40
2023-02-03T04:29:33.018Z,83.50
2023-02-03T04:31:57.915Z,83.50
2023-02-03T04:34:21.251Z,83.60
2023-02-03T04:36:44.525Z,83.50
2023-02-03T04:39:08.171Z,83.30
2023-02-03T04:41:31.421Z,83.80
2023-02-03T04:43:54.766Z,83.40
2023-02-03T04:46:18.960Z,83.30
2023-02-03T04:48:43.641Z,83.50
2023-02-03T04:51:09.561Z,83.30
2023-02-03T04:53:33.283Z,83.70
2023-02-03T04:55:56.569Z,83.90
2023-02-03T04:58:19.950Z,83.80
2023-02-03T05:00:43.316Z,83.40
2023-02-03T05:03:06.732Z,83.50
2023-02-03T05:05:31.591Z,83.80
2023-02-03T05:07:54.849Z,83.70
2023-02-03T05:10:18.591Z,83.50
2023-02-03T05:12:41.908Z,83.90
2023-02-03T05:15:05.927Z,84.10
2023-02-03T05:17:29.282Z,84.20
2023-02-03T05:19:52.571Z,83.60
2023-02-03T05:22:17.204Z,83.90
2023-02-03T05:24:40.498Z,84.20
2023-02-03T05:27:03.822Z,83.80
2023-02-03T05:29:27.527Z,83.80
2023-02-03T05:31:50.938Z,83.70
2023-02-03T05:34:14.344Z,83.90
2023-02-03T05:36:37.574Z,83.70
2023-02-03T05:39:02.135Z,83.90
2023-02-03T05:41:42.699Z,83.80
2023-02-03T05:44:06.234Z,83.30
2023-02-03T05:46:29.955Z,83.10
2023-02-03T05:48:53.267Z,83.20
2023-02-03T05:51:16.706Z,83.10
2023-02-03T05:53:40.205Z,83.10
2023-02-03T05:56:05.504Z,83.00
2023-02-03T05:58:28.740Z,82.80
2023-02-03T06:00:53.097Z,83.10
2023-02-03T06:03:16.675Z,83.30
2023-02-03T06:05:41.417Z,83.40
2023-02-03T06:08:05.223Z,83.30
2023-02-03T06:10:29.561Z,82.70
2023-02-03T06:12:54.867Z,82.90
2023-02-03T06:15:18.570Z,83.10
2023-02-03T06:17:45.498Z,83.20
2023-02-03T06:20:12.231Z,83.00
2023-02-03T06:22:36.272Z,82.80
2023-02-03T06:24:59.632Z,82.50
2023-02-03T06:27:22.883Z,82.60
2023-02-03T06:29:47.545Z,82.50
2023-02-03T06:32:10.949Z,82.60
2023-02-03T06:34:34.612Z,82.50
2023-02-03T06:36:57.987Z,82.70
2023-02-03T06:39:21.717Z,82.40
2023-02-03T06:41:45.035Z,82.50
2023-02-03T06:44:08.980Z,82.50
2023-02-03T06:46:34.034Z,82.30
2023-02-03T06:48:57.854Z,82.40
2023-02-03T06:51:21.237Z,82.20
2023-02-03T06:53:44.595Z,82.10
2023-02-03T06:56:08.122Z,82.20
2023-02-03T06:58:31.476Z,82.40
2023-02-03T07:00:57.127Z,82.80
2023-02-03T07:03:21.738Z,82.40
2023-02-03T07:05:45.174Z,82.70
2023-02-03T07:08:08.474Z,82.60
2023-02-03T07:10:32.033Z,82.80
2023-02-03T07:12:55.696Z,83.00
2023-02-03T07:15:19.886Z,83.00
2023-02-03T07:17:43.086Z,82.90
2023-02-03T07:20:08.971Z,83.00
2023-02-03T07:22:32.602Z,82.90
2023-02-03T07:24:55.951Z,83.00
2023-02-03T07:27:20.303Z,82.90
2023-02-03T07:29:43.721Z,82.90
2023-02-03T07:32:07.138Z,83.10
2023-02-03T07:34:30.864Z,82.90
2023-02-03T07:36:55.923Z,82.90
2023-02-03T07:39:19.404Z,83.00
2023-02-03T07:41:42.720Z,83.00
2023-02-03T07:44:06.831Z,82.80
2023-02-03T07:46:30.302Z,82.90
2023-02-03T07:48:53.886Z,82.80
2023-02-03T07:51:17.340Z,82.80
2023-02-03T07:53:42.154Z,82.70
2023-02-03T07:56:06.906Z,82.50
2023-02-03T07:58:30.789Z,82.70
2023-02-03T08:00:54.153Z,82.60
2023-02-03T08:03:17.528Z,82.80
2023-02-03T08:05:40.902Z,82.80
2023-02-03T08:08:04.332Z,82.50
2023-02-03T08:10:29.933Z,82.70
2023-02-03T08:12:54.897Z,82.80
2023-02-03T08:15:18.341Z,82.70
2023-02-03T08:17:42.134Z,83.00
2023-02-03T08:20:07.178Z,83.00
2023-02-03T08:22:30.411Z,83.30
2023-02-03T08:24:53.672Z,83.40
2023-02-03T08:27:21.825Z,83.40
2023-02-03T08:29:46.032Z,83.30
2023-02-03T08:32:11.318Z,83.50
2023-02-03T08:34:34.652Z,83.60
2023-02-03T08:36:57.980Z,83.60
2023-02-03T08:39:21.341Z,84.00
2023-02-03T08:41:44.657Z,83.80
2023-02-03T08:44:09.306Z,84.10
2023-02-03T08:46:33.194Z,84.60
2023-02-03T08:48:57.553Z,84.50
2023-02-03T08:51:20.815Z,84.70
2023-02-03T08:53:44.629Z,84.80
2023-02-03T08:56:08.636Z,85.00
2023-02-03T08:58:31.931Z,85.20
2023-02-03T09:00:56.576Z,85.60
2023-02-03T09:03:20.012Z,85.60
2023-02-03T09:05:43.371Z,85.90
2023-02-03T09:08:07.147Z,86.10
2023-02-03T09:10:30.842Z,86.40
2023-02-03T09:12:54.339Z,86.80
2023-02-03T09:15:17.946Z,87.10
2023-02-03T09:17:43.106Z,87.50
2023-02-03T09:20:08.006Z,87.40
2023-02-03T09:22:31.506Z,87.60
2023-02-03T09:24:54.992Z,87.50
2023-02-03T09:27:18.307Z,87.50
2023-02-03T09:29:41.699Z,87.40
2023-02-03T09:32:08.827Z,87.60
2023-02-03T09:34:33.701Z,87.50
2023-02-03T09:36:56.987Z,87.60
2023-02-03T09:39:20.482Z,87.50
2023-02-03T09:42:16.788Z,87.60
2023-02-03T09:44:49.122Z,87.60
2023-02-03T09:47:17.097Z,87.70
2023-02-03T09:49:47.180Z,88.00
2023-02-03T09:52:15.874Z,88.10
2023-02-03T09:54:44.689Z,88.30
2023-02-03T09:57:17.654Z,88.50
2023-02-03T09:59:41.298Z,88.60
2023-02-03T10:02:22.921Z,88.70
2023-02-03T10:04:59.308Z,88.80
2023-02-03T10:07:35.087Z,88.90
2023-02-03T10:10:05.901Z,88.90
2023-02-03T10:13:04.598Z,89.00
2023-02-03T10:16:04.330Z,88.90
2023-02-03T10:18:33.664Z,89.00
2023-02-03T10:21:03.351Z,88.70
2023-02-03T10:23:34.576Z,88.60
2023-02-03T10:26:00.795Z,88.50
2023-02-03T10:28:28.675Z,88.40
2023-02-03T10:30:57.578Z,88.20
2023-02-03T10:33:22.125Z,88.00
2023-02-03T10:35:52.571Z,88.00
2023-02-03T10:38:28.440Z,87.80
2023-02-03T10:40:51.896Z,87.90
2023-02-03T10:43:32.468Z,87.70
2023-02-03T10:45:55.929Z,87.60
2023-02-03T10:48:19.914Z,87.70
2023-02-03T10:50:47.952Z,87.40
2023-02-03T10:53:34.367Z,87.20
2023-02-03T10:56:08.639Z,87.20
2023-02-03T10:58:34.722Z,87.10
2023-02-03T11:01:06.081Z,87.00
2023-02-03T11:03:31.592Z,87.00
2023-02-03T11:06:11.597Z,86.60
2023-02-03T11:08:37.934Z,86.50
2023-02-03T11:11:05.008Z,86.40
2023-02-03T11:13:28.471Z,86.10
2023-02-03T11:15:58.129Z,86.00
2023-02-03T11:18:43.464Z,85.90
2023-02-03T11:21:16.779Z,85.80
2023-02-03T11:23:55.656Z,85.80
2023-02-03T11:26:23.251Z,85.20
2023-02-03T11:28:50.064Z,85.40
2023-02-03T11:31:22.031Z,84.90
2023-02-03T11:33:49.841Z,84.80
2023-02-03T11:36:14.075Z,84.60
2023-02-03T11:38:37.559Z,84.80
2023-02-03T11:41:03.501Z,84.80
2023-02-03T11:43:26.849Z,84.30
2023-02-03T11:45:54.603Z,84.50
2023-02-03T11:48:31.148Z,84.50
2023-02-03T11:51:05.978Z,84.50
2023-02-03T11:53:56.179Z,84.70
2023-02-03T11:56:35.839Z,84.50
2023-02-03T11:59:19.414Z,84.40
2023-02-03T12:02:01.949Z,84.20
2023-02-03T12:05:07.887Z,84.30
2023-02-03T12:07:54.663Z,84.10
2023-02-03T12:10:39.023Z,84.10
2023-02-03T12:13:18.072Z,84.30
2023-02-03T12:16:00.711Z,84.50
2023-02-03T12:18:42.392Z,84.30
2023-02-03T12:21:30.316Z,84.20
2023-02-03T12:24:02.874Z,84.30
2023-02-03T12:26:31.204Z,84.20
2023-02-03T12:29:04.197Z,84.40
2023-02-03T12:31:36.650Z,84.10
2023-02-03T12:34:15.032Z,84.30
2023-02-03T12:36:42.474Z,84.20
2023-02-03T12:39:15.120Z,84.10
2023-02-03T12:41:43.188Z,84.00
2023-02-03T12:44:17.816Z,84.30
2023-02-03T12:46:46.212Z,84.20
2023-02-03T12:49:21.043Z,84.30
2023-02-03T12:51:51.472Z,84.30
2023-02-03T12:54:32.032Z,84.30
2023-02-03T12:57:02.178Z,84.00
2023-02-03T12:59:30.857Z,84.20
2023-02-03T13:01:59.614Z,84.00
2023-02-03T13:04:30.685Z,83.90
2023-02-03T13:07:00.009Z,84.20
2023-02-03T13:09:33.036Z,84.10
2023-02-03T13:12:05.529Z,83.90
2023-02-03T13:14:37.241Z,83.60
2023-02-03T13:17:08.303Z,83.20
2023-02-03T13:19:42.454Z,83.50
2023-02-03T13:22:12.445Z,83.30
2023-02-03T13:24:35.887Z,83.40
2023-02-03T13:27:30.050Z,83.40
2023-02-03T13:30:17.969Z,83.70
2023-02-03T13:33:02.812Z,83.50
2023-02-03T13:35:52.146Z,83.50
2023-02-03T13:38:57.281Z,83.50
2023-02-03T13:41:28.560Z,83.60
2023-02-03T13:43:54.943Z,83.80
2023-02-03T13:46:26.554Z,83.70
2023-02-03T13:48:50.665Z,83.60
2023-02-03T13:51:17.968Z,83.70
2023-02-03T13:53:44.892Z,83.90
2023-02-03T13:56:10.376Z,84.00
2023-02-03T13:58:36.733Z,84.00
2023-02-03T14:01:38.433Z,84.20
2023-02-03T14:04:03.085Z,84.50
2023-02-03T14:07:04.173Z,84.20
2023-02-03T14:10:17.897Z,84.40
2023-02-03T14:12:59.169Z,84.60
2023-02-03T14:15:34.199Z,84.60
2023-02-03T14:18:21.830Z,84.50
2023-02-03T14:21:15.031Z,84.50
2023-02-03T14:23:51.742Z,84.40
2023-02-03T14:26:25.987Z,85.00
2023-02-03T14:28:52.757Z,85.50
2023-02-03T14:31:21.136Z,86.70
2023-02-03T14:33:59.452Z,87.70
2023-02-03T14:36:35.033Z,88.00
2023-02-03T14:39:02.322Z,87.90
2023-02-03T14:41:36.029Z,87.70
2023-02-03T14:44:10.434Z,87.10
2023-02-03T14:47:08.805Z,87.30
2023-02-03T14:49:53.624Z,87.60
2023-02-03T14:52:53.579Z,88.80
2023-02-03T14:55:36.686Z,89.90
2023-02-03T14:58:03.635Z,90.80
2023-02-03T15:00:34.225Z,91.30
2023-02-03T15:03:30.230Z,91.70
2023-02-03T15:05:59.438Z,91.70
2023-02-03T15:08:36.523Z,91.40
2023-02-03T15:11:00.175Z,90.60
2023-02-03T15:13:28.265Z,90.30
2023-02-03T15:15:54.712Z,88.40
2023-02-03T15:18:24.373Z,87.70
2023-02-03T15:20:49.551Z,87.90
2023-02-03T15:23:23.373Z,87.20
2023-02-03T15:25:46.827Z,86.70
2023-02-03T15:28:16.957Z,86.40
2023-02-03T15:30:41.647Z,85.90
2023-02-03T15:33:09.061Z,86.10
2023-02-03T15:35:35.475Z,85.20
2023-02-03T15:38:04.256Z,86.00
2023-02-03T15:40:39.343Z,84.90
2023-02-03T15:43:09.242Z,85.80
2023-02-03T15:45:35.839Z,85.00
2023-02-03T15:48:03.394Z,85.50
2023-02-03T15:50:32.250Z,85.50
2023-02-03T15:53:01.636Z,85.60
2023-02-03T15:55:34.035Z,85.40
2023-02-03T15:57:57.623Z,84.80
2023-02-03T16:00:33.267Z,84.90
2023-02-03T16:02:59.667Z,85.30
2023-02-03T16:05:27.416Z,85.70
2023-02-03T16:07:51.225Z,85.20
2023-02-03T16:10:32.049Z,85.20
2023-02-03T16:12:55.899Z,85.30
2023-02-03T16:15:24.829Z,85.50
2023-02-03T16:17:48.125Z,85.50
2023-02-03T16:20:29.215Z,85.50
2023-02-03T16:23:19.664Z,85.40
2023-02-03T16:25:44.529Z,85.20
2023-02-03T16:28:35.317Z,85.30
2023-02-03T16:31:20.178Z,85.60
2023-02-03T16:34:05.068Z,85.90
2023-02-03T16:36:45.794Z,86.00
2023-02-03T16:39:31.370Z,86.20
2023-02-03T16:42:14.068Z,86.70
2023-02-03T16:44:54.790Z,86.90
2023-02-03T16:47:43.917Z,86.90
2023-02-03T16:50:37.464Z,87.10
2023-02-03T16:53:01.792Z,87.00
2023-02-03T16:55:25.127Z,87.00
2023-02-03T16:57:51.349Z,87.00
2023-02-03T17:00:17.570Z,86.80
2023-02-03T17:02:40.923Z,86.90
2023-02-03T17:05:04.232Z,86.60
2023-02-03T17:07:27.587Z,86.50
2023-02-03T17:09:51.447Z,86.70
2023-02-03T17:12:15.615Z,86.40
2023-02-03T17:14:40.336Z,86.30
2023-02-03T17:17:03.653Z,86.40
2023-02-03T17:19:26.952Z,86.10
2023-02-03T17:21:51.427Z,85.80
2023-02-03T17:24:14.983Z,85.90
2023-02-03T17:26:38.400Z,85.80
2023-02-03T17:29:03.500Z,85.80
2023-02-03T17:31:28.348Z,85.60
2023-02-03T17:33:53.102Z,85.70
2023-02-03T17:36:19.562Z,85.70
2023-02-03T17:54:55.458Z,84.80
2023-02-03T17:57:18.732Z,85.00
2023-02-03T17:59:42.050Z,85.10
2023-02-03T18:02:07.177Z,84.90
2023-02-03T18:04:30.899Z,84.70
2023-02-03T18:06:54.533Z,84.90
2023-02-03T18:09:18.239Z,84.90
2023-02-03T18:11:41.788Z,85.00
2023-02-03T18:14:06.589Z,85.00
2023-02-03T18:16:33.493Z,85.00
2023-02-03T18:18:58.337Z,84.80
2023-02-03T18:21:26.392Z,84.80
2023-02-03T18:23:51.265Z,84.70
2023-02-03T18:26:15.209Z,84.70
2023-02-03T18:28:39.501Z,84.90
2023-02-03T18:31:07.767Z,85.10
2023-02-03T18:33:31.315Z,84.70
2023-02-03T18:35:57.685Z,84.80
2023-02-03T18:38:21.083Z,84.70
2023-02-03T18:40:44.546Z,84.70
2023-02-03T18:43:08.143Z,84.80
2023-02-03T18:45:34.378Z,84.80
2023-02-03T18:47:57.796Z,84.50
2023-02-03T18:50:21.394Z,84.30
2023-02-03T18:52:46.224Z,84.90
2023-02-03T18:55:10.220Z,84.40
2023-02-03T18:57:33.513Z,84.60
2023-02-03T18:59:57.030Z,84.90
2023-02-03T19:02:21.617Z,84.90
2023-02-03T19:04:44.910Z,85.20
2023-02-03T19:07:08.271Z,85.50
2023-02-03T19:09:34.040Z,85.60
2023-02-03T19:11:58.762Z,85.40
2023-02-03T19:14:23.482Z,85.90
2023-02-03T19:16:50.304Z,85.50
2023-02-03T19:19:15.029Z,85.40
2023-02-03T19:21:38.289Z,85.30
2023-02-03T19:24:01.836Z,85.50
2023-02-03T19:26:27.770Z,85.40
2023-02-03T19:28:52.531Z,85.50
2023-02-03T19:31:16.742Z,85.30
2023-02-03T19:33:40.457Z,85.50
2023-02-03T19:36:04.033Z,85.60
2023-02-03T19:38:27.516Z,85.40
2023-02-03T19:40:51.389Z,85.60
2023-02-03T19:43:16.248Z,85.60
2023-02-03T19:45:39.556Z,85.60
2023-02-03T19:48:02.820Z,85.80
2023-02-03T19:50:26.181Z,86.00
2023-02-03T19:52:49.516Z,86.20
2023-02-03T19:55:16.071Z,86.40
2023-02-03T19:57:40.204Z,86.10
2023-02-03T20:00:05.560Z,86.30
2023-02-03T20:02:36.815Z,86.20
2023-02-03T20:05:00.208Z,86.10
2023-02-03T20:07:24.994Z,86.30
2023-02-03T20:09:48.747Z,86.20
2023-02-03T20:12:13.062Z,86.40
2023-02-03T20:14:36.495Z,85.90
2023-02-03T20:17:03.286Z,85.80
2023-02-03T20:19:26.741Z,85.60
2023-02-03T20:21:50.047Z,85.70
2023-02-03T20:24:17.819Z,85.40
2023-02-03T20:26:41.558Z,85.20
2023-02-03T20:29:04.987Z,85.30
2023-02-03T20:31:28.461Z,84.80
2023-02-03T20:33:53.332Z,85.30
2023-02-03T20:36:16.628Z,84.90
2023-02-03T20:38:40.036Z,85.00
2023-02-03T20:41:03.377Z,84.80
2023-02-03T20:43:28.955Z,85.00
2023-02-03T20:45:53.087Z,84.30
2023-02-03T20:48:18.094Z,84.20
2023-02-03T20:50:46.716Z,83.90
2023-02-03T20:53:15.074Z,84.20
2023-02-03T20:55:38.620Z,83.50
2023-02-03T20:58:02.864Z,83.40
2023-02-03T21:00:28.872Z,83.40
2023-02-03T21:03:10.604Z,83.30
2023-02-03T21:05:38.230Z,82.40
2023-02-03T21:08:03.356Z,82.10
2023-02-03T21:10:27.093Z,82.40
2023-02-03T21:12:50.743Z,81.80
2023-02-03T21:15:20.916Z,81.60
2023-02-03T21:17:44.267Z,81.70
2023-02-03T21:20:25.693Z,81.70
2023-02-03T21:22:49.086Z,81.30
2023-02-03T21:25:28.297Z,81.00
2023-02-03T21:27:53.023Z,81.10
2023-02-03T21:30:30.820Z,81.00
2023-02-03T21:32:54.298Z,81.50
2023-02-03T21:35:24.947Z,81.70
2023-02-03T21:37:48.239Z,81.20
2023-02-03T21:40:24.022Z,81.10
2023-02-03T21:42:48.073Z,81.00
2023-02-03T21:45:28.416Z,81.40
2023-02-03T21:47:53.722Z,80.90
2023-02-03T21:50:30.397Z,81.00
2023-02-03T21:52:54.080Z,81.20
2023-02-03T21:55:19.156Z,81.30
2023-02-03T21:57:42.516Z,81.20
2023-02-03T22:00:42.988Z,80.90
2023-02-03T22:03:08.417Z,81.50
2023-02-03T22:05:31.733Z,81.50
2023-02-03T22:07:55.533Z,81.30
2023-02-03T22:10:20.340Z,81.90
2023-02-03T22:12:43.675Z,81.50
2023-02-03T22:15:08.040Z,81.70
2023-02-03T22:17:31.303Z,81.80
2023-02-03T22:19:54.534Z,81.80
2023-02-03T22:22:17.816Z,82.00
2023-02-03T22:24:41.051Z,82.00
2023-02-03T22:27:06.382Z,81.80
2023-02-03T22:29:29.641Z,81.50
2023-02-03T22:31:53.042Z,81.40
2023-02-03T22:34:16.510Z,81.40
2023-02-03T22:36:39.807Z,81.20
2023-02-03T22:39:03.290Z,81.50
2023-02-03T22:41:26.597Z,81.40
2023-02-03T22:43:51.392Z,81.60
2023-02-03T22:46:14.720Z,82.00
2023-02-03T22:48:38.120Z,81.40
2023-02-03T22:51:01.451Z,82.00
2023-02-03T22:53:24.786Z,81.50
2023-02-03T22:55:48.107Z,81.80
2023-02-03T22:58:11.641Z,81.80
2023-02-03T23:00:36.652Z,82.00
2023-02-03T23:03:00.336Z,82.20
2023-02-03T23:05:24.254Z,82.30
2023-02-03T23:07:48.535Z,82.20
2023-02-03T23:10:16.058Z,82.30
2023-02-03T23:12:40.577Z,82.40
2023-02-03T23:15:04.133Z,82.70
2023-02-03T23:17:28.896Z,83.00
2023-02-03T23:19:52.210Z,83.10
2023-02-03T23:22:15.973Z,83.10
2023-02-03T23:24:39.278Z,83.20
2023-02-03T23:27:02.584Z,83.30
2023-02-03T23:29:25.839Z,83.20
2023-02-03T23:31:49.137Z,83.30
2023-02-03T23:34:31.461Z,83.30
2023-02-03T23:36:54.709Z,83.50
2023-02-03T23:39:17.890Z,83.60
2023-02-03T23:41:41.159Z,83.90
2023-02-03T23:44:04.427Z,83.80
2023-02-03T23:46:28.466Z,84.10
2023-02-03T23:48:51.697Z,84.20
2023-02-03T23:51:16.381Z,84.10
2023-02-03T23:53:39.655Z,84.10
2023-02-03T23:56:02.906Z,84.10
2023-02-03T23:58:26.646Z,84.20
